createdAt,value
2022-12-29T00:04:09.929Z,99246.63
2022-12-29T00:09:17.767Z,99248.25
2022-12-29T00:14:39.051Z,99248.53
2022-12-29T00:20:00.298Z,99255.28
2022-12-29T00:25:21.713Z,99261.84
2022-12-29T00:30:43.903Z,99261.91
2022-12-29T00:35:53.589Z,99258.91
2022-12-29T00:41:14.695Z,99255.97
2022-12-29T00:46:19.896Z,99267.09
2022-12-29T00:51:22.749Z,99259.50
2022-12-29T00:56:25.680Z,99272.03
2022-12-29T01:01:28.496Z,99277.16
2022-12-29T01:06:33.758Z,99266.50
2022-12-29T01:11:36.276Z,99261.53
2022-12-29T01:16:38.927Z,99282.13
2022-12-29T01:21:42.007Z,99282.63
2022-12-29T01:26:44.884Z,99277.44
2022-12-29T01:31:47.782Z,99294.47
2022-12-29T01:36:50.362Z,99284.00
2022-12-29T01:41:53.054Z,99289.88
2022-12-29T01:46:56.053Z,99280.88
2022-12-29T01:52:02.830Z,99289.63
2022-12-29T01:57:12.727Z,99293.34
2022-12-29T02:02:15.344Z,99291.22
2022-12-29T02:07:24.517Z,99260.34
2022-12-29T02:12:27.064Z,99304.59
2022-12-29T02:17:38.963Z,99262.94
2022-12-29T02:22:44.487Z,99299.31
2022-12-29T02:27:51.504Z,99307.09
2022-12-29T02:33:01.523Z,99292.66
2022-12-29T02:38:25.151Z,99310.56
2022-12-29T02:44:02.437Z,99307.88
2022-12-29T02:49:20.935Z,99323.91
2022-12-29T02:54:42.190Z,99331.84
2022-12-29T02:59:48.300Z,99301.72
2022-12-29T03:05:24.353Z,99326.81
2022-12-29T03:10:47.964Z,99322.47
2022-12-29T03:16:08.790Z,99335.19
2022-12-29T03:21:58.048Z,99335.34
2022-12-29T03:27:05.554Z,99334.94
2022-12-29T03:32:15.956Z,99340.19
2022-12-29T03:37:30.815Z,99347.16
2022-12-29T03:42:37.967Z,99344.91
2022-12-29T03:47:40.654Z,99349.00
2022-12-29T03:52:43.515Z,99360.66
2022-12-29T03:57:46.218Z,99366.91
2022-12-29T04:02:54.040Z,99373.97
2022-12-29T04:08:01.855Z,99374.41
2022-12-29T04:13:04.568Z,99362.97
2022-12-29T04:18:07.579Z,99373.31
2022-12-29T04:23:11.272Z,99376.50
2022-12-29T04:28:15.221Z,99376.19
2022-12-29T04:33:41.561Z,99370.72
2022-12-29T04:38:44.375Z,99383.91
2022-12-29T04:43:47.210Z,99386.78
2022-12-29T04:49:09.876Z,99385.50
2022-12-29T04:54:35.574Z,99397.44
2022-12-29T04:59:46.398Z,99379.88
2022-12-29T05:04:50.329Z,99401.72
2022-12-29T05:09:53.605Z,99408.28
2022-12-29T05:14:56.300Z,99418.59
2022-12-29T05:20:00.041Z,99420.97
2022-12-29T05:25:03.915Z,99423.44
2022-12-29T05:30:11.786Z,99415.91
2022-12-29T05:35:15.236Z,99431.38
2022-12-29T05:40:18.422Z,99433.00
2022-12-29T05:45:21.294Z,99419.59
2022-12-29T05:50:31.749Z,99415.19
2022-12-29T05:55:50.584Z,99425.19
2022-12-29T06:00:53.382Z,99429.03
2022-12-29T06:05:56.016Z,99432.84
2022-12-29T06:10:59.051Z,99430.47
2022-12-29T06:16:01.723Z,99434.88
2022-12-29T06:21:06.400Z,99435.53
2022-12-29T06:26:09.662Z,99447.53
2022-12-29T06:31:12.609Z,99445.94
2022-12-29T06:36:15.923Z,99448.13
2022-12-29T06:41:24.549Z,99446.00
2022-12-29T06:46:49.499Z,99447.50
2022-12-29T06:51:52.150Z,99451.63
2022-12-29T06:56:54.671Z,99448.28
2022-12-29T07:01:57.346Z,99435.13
2022-12-29T07:07:00.349Z,99463.44
2022-12-29T07:12:03.087Z,99463.59
2022-12-29T07:17:07.360Z,99455.69
2022-12-29T07:22:11.276Z,99447.56
2022-12-29T07:27:14.538Z,99456.72
2022-12-29T07:32:17.517Z,99461.13
2022-12-29T07:37:20.251Z,99463.28
2022-12-29T07:42:22.823Z,99452.31
2022-12-29T07:47:28.471Z,99452.44
2022-12-29T07:52:31.080Z,99460.84
2022-12-29T07:57:33.650Z,99465.75
2022-12-29T08:02:37.452Z,99471.97
2022-12-29T08:07:40.101Z,99476.97
2022-12-29T08:12:43.954Z,99457.50
2022-12-29T08:17:46.548Z,99481.63
2022-12-29T08:22:49.111Z,99483.41
2022-12-29T08:27:51.800Z,99463.56
2022-12-29T08:32:54.780Z,99472.13
2022-12-29T08:37:57.430Z,99474.53
2022-12-29T08:43:00.558Z,99455.69
2022-12-29T08:48:03.330Z,99473.66
2022-12-29T08:53:06.009Z,99479.91
2022-12-29T08:58:08.664Z,99475.34
2022-12-29T09:03:14.367Z,99438.94
2022-12-29T09:08:23.851Z,99477.06
2022-12-29T09:13:28.750Z,99461.97
2022-12-29T09:18:32.169Z,99470.66
2022-12-29T09:23:35.251Z,99466.91
2022-12-29T09:28:38.028Z,99441.09
2022-12-29T09:33:40.785Z,99449.28
2022-12-29T09:38:43.662Z,99479.75
2022-12-29T09:43:49.272Z,99472.94
2022-12-29T09:49:01.094Z,99479.56
2022-12-29T09:54:22.208Z,99461.97
2022-12-29T09:59:38.201Z,99453.31
2022-12-29T10:04:43.027Z,99458.72
2022-12-29T10:10:02.105Z,99450.50
2022-12-29T10:15:46.173Z,99449.91
2022-12-29T10:21:02.545Z,99455.44
2022-12-29T10:26:10.322Z,99451.31
2022-12-29T10:31:22.073Z,99449.72
2022-12-29T10:36:49.907Z,99455.69
2022-12-29T10:42:14.933Z,99461.00
2022-12-29T10:47:25.753Z,99434.47
2022-12-29T10:52:30.130Z,99452.63
2022-12-29T10:57:37.739Z,99431.66
2022-12-29T11:03:13.863Z,99436.72
2022-12-29T11:08:26.278Z,99435.88
2022-12-29T11:13:36.703Z,99414.53
2022-12-29T11:18:43.644Z,99421.56
2022-12-29T11:23:57.568Z,99423.41
2022-12-29T11:29:09.164Z,99408.34
2022-12-29T11:34:31.589Z,99437.09
2022-12-29T11:39:36.747Z,99431.25
2022-12-29T11:44:45.028Z,99436.94
2022-12-29T11:49:52.260Z,99446.31
2022-12-29T11:54:57.059Z,99441.88
2022-12-29T12:00:02.674Z,99450.34
2022-12-29T12:05:14.916Z,99457.25
2022-12-29T12:10:45.847Z,99462.38
2022-12-29T12:15:57.157Z,99459.81
2022-12-29T12:21:19.574Z,99451.19
2022-12-29T12:26:29.451Z,99450.16
2022-12-29T12:31:56.194Z,99414.66
2022-12-29T12:37:21.619Z,99450.25
2022-12-29T12:42:46.481Z,99451.22
2022-12-29T12:48:03.958Z,99448.44
2022-12-29T12:53:19.018Z,99439.13
2022-12-29T12:58:33.726Z,99442.31
2022-12-29T13:03:42.352Z,99446.50
2022-12-29T13:08:53.793Z,99453.09
2022-12-29T13:14:20.431Z,99460.97
2022-12-29T13:20:01.869Z,99453.97
2022-12-29T13:25:28.670Z,99459.97
2022-12-29T13:30:53.914Z,99459.88
2022-12-29T13:35:59.279Z,99452.19
2022-12-29T13:41:10.613Z,99447.91
2022-12-29T13:46:22.830Z,99437.72
2022-12-29T13:51:28.716Z,99450.66
2022-12-29T13:56:43.825Z,99447.22
2022-12-29T14:01:59.961Z,99453.75
2022-12-29T14:07:14.203Z,99418.56
2022-12-29T14:12:34.023Z,99448.72
2022-12-29T14:17:37.625Z,99458.31
2022-12-29T14:22:58.774Z,99454.88
2022-12-29T14:28:17.375Z,99463.03
2022-12-29T14:33:22.995Z,99455.25
2022-12-29T14:38:28.838Z,99453.06
2022-12-29T14:43:31.664Z,99459.09
2022-12-29T14:48:39.314Z,99427.22
2022-12-29T14:53:52.897Z,99419.41
2022-12-29T14:59:00.827Z,99434.00
2022-12-29T15:04:31.417Z,99439.91
2022-12-29T15:09:43.915Z,99464.00
2022-12-29T15:14:54.530Z,99457.53
2022-12-29T15:19:59.219Z,99459.28
2022-12-29T15:25:01.927Z,99458.19
2022-12-29T15:30:17.784Z,99435.91
2022-12-29T15:35:34.276Z,99447.00
2022-12-29T15:40:36.902Z,99418.88
2022-12-29T15:45:40.004Z,99425.94
2022-12-29T15:50:44.283Z,99442.25
2022-12-29T15:55:48.934Z,99438.84
2022-12-29T16:00:58.463Z,99426.16
2022-12-29T16:06:31.990Z,99426.22
2022-12-29T16:11:41.218Z,99427.03
2022-12-29T16:16:45.864Z,99425.03
2022-12-29T16:21:49.134Z,99395.56
2022-12-29T16:27:00.871Z,99365.50
2022-12-29T16:32:23.824Z,99380.34
2022-12-29T16:37:35.202Z,99371.09
2022-12-29T16:42:51.887Z,99369.41
2022-12-29T16:48:07.125Z,99389.19
2022-12-29T16:53:30.973Z,99387.91
2022-12-29T16:58:36.461Z,99386.22
2022-12-29T17:03:43.317Z,99387.97
2022-12-29T17:08:47.215Z,99386.13
2022-12-29T17:13:49.775Z,99387.16
2022-12-29T17:18:52.457Z,99392.50
2022-12-29T17:23:55.072Z,99381.53
2022-12-29T17:28:57.624Z,99382.59
2022-12-29T17:34:01.267Z,99369.75
2022-12-29T17:39:04.016Z,99359.56
2022-12-29T17:44:07.425Z,99349.94
2022-12-29T17:49:15.267Z,99361.97
2022-12-29T17:54:25.043Z,99359.41
2022-12-29T17:59:28.471Z,99355.06
2022-12-29T18:04:31.044Z,99350.19
2022-12-29T18:09:33.730Z,99348.50
2022-12-29T18:14:36.344Z,99356.28
2022-12-29T18:19:38.907Z,99350.16
2022-12-29T18:24:41.730Z,99354.41
2022-12-29T18:29:44.321Z,99353.16
2022-12-29T18:34:49.002Z,99349.53
2022-12-29T18:39:51.675Z,99358.13
2022-12-29T18:44:55.535Z,99359.00
2022-12-29T18:49:58.271Z,99346.78
2022-12-29T18:55:00.888Z,99338.84
2022-12-29T19:00:04.376Z,99341.59
2022-12-29T19:05:31.851Z,99345.06
2022-12-29T19:10:35.814Z,99328.09
2022-12-29T19:15:38.400Z,99337.50
2022-12-29T19:20:43.227Z,99316.63
2022-12-29T19:25:46.729Z,99336.25
2022-12-29T19:30:52.598Z,99341.69
2022-12-29T19:36:02.559Z,99344.91
2022-12-29T19:41:07.688Z,99331.56
2022-12-29T19:46:11.767Z,99327.16
2022-12-29T19:51:17.315Z,99327.91
2022-12-29T19:56:20.392Z,99309.94
2022-12-29T20:01:23.978Z,99316.19
2022-12-29T20:06:26.702Z,99323.72
2022-12-29T20:11:29.351Z,99303.97
2022-12-29T20:16:32.062Z,99318.59
2022-12-29T20:21:34.791Z,99322.97
2022-12-29T20:26:37.469Z,99324.38
2022-12-29T20:31:40.941Z,99324.47
2022-12-29T20:36:46.237Z,99290.28
2022-12-29T20:41:48.808Z,99310.09
2022-12-29T20:46:51.692Z,99310.34
2022-12-29T20:52:11.467Z,99301.53
2022-12-29T20:57:14.079Z,99297.25
2022-12-29T21:02:21.855Z,99285.47
2022-12-29T21:07:24.691Z,99281.94
2022-12-29T21:12:27.257Z,99253.50
2022-12-29T21:17:29.881Z,99262.38
2022-12-29T21:22:32.478Z,99252.28
2022-12-29T21:27:35.028Z,99251.31
2022-12-29T21:32:37.693Z,99244.31
2022-12-29T21:37:40.239Z,99255.47
2022-12-29T21:42:42.899Z,99218.34
2022-12-29T21:48:04.321Z,99243.47
2022-12-29T21:53:06.855Z,99233.38
2022-12-29T21:58:28.156Z,99224.75
2022-12-29T22:03:49.257Z,99243.75
2022-12-29T22:09:10.351Z,99254.81
2022-12-29T22:14:13.109Z,99239.44
2022-12-29T22:19:16.391Z,99236.13
2022-12-29T22:24:18.999Z,99236.13
2022-12-29T22:29:21.913Z,99243.00
2022-12-29T22:34:24.516Z,99241.31
2022-12-29T22:39:27.070Z,99244.75
2022-12-29T22:44:29.676Z,99236.78
2022-12-29T22:49:32.816Z,99224.13
2022-12-29T22:54:35.465Z,99225.25
2022-12-29T22:59:38.047Z,99226.66
2022-12-29T23:05:02.803Z,99220.03
2022-12-29T23:10:05.310Z,99211.44
2022-12-29T23:15:08.492Z,99226.09
2022-12-29T23:20:11.465Z,99230.16
2022-12-29T23:25:14.105Z,99237.97
2022-12-29T23:30:16.761Z,99226.59
2022-12-29T23:35:19.324Z,99232.44
2022-12-29T23:40:21.946Z,99218.81
2022-12-29T23:45:24.504Z,99219.78
2022-12-29T23:50:27.158Z,99213.16
2022-12-29T23:55:29.659Z,99204.75
